sensor_id;sensor_type;location;lat;lon;timestamp;temperature;humidity
51725;DHT22;37801;53.224;6.552;2023-02-28T00:00:24;5.70;99.90
51725;DHT22;37801;53.224;6.552;2023-02-28T00:02:52;5.70;99.90
51725;DHT22;37801;53.224;6.552;2023-02-28T00:05:21;5.70;99.90
51725;DHT22;37801;53.224;6.552;2023-02-28T00:07:48;5.70;99.90
51725;DHT22;37801;53.224;6.552;2023-02-28T00:10:17;5.70;99.90
51725;DHT22;37801;53.224;6.552;2023-02-28T00:12:50;5.70;99.90
51725;DHT22;37801;53.224;6.552;2023-02-28T00:15:16;5.70;99.90
51725;DHT22;37801;53.224;6.552;2023-02-28T00:17:43;5.70;99.90
51725;DHT22;37801;53.224;6.552;2023-02-28T00:20:09;5.70;99.90
51725;DHT22;37801;53.224;6.552;2023-02-28T00:22:45;5.70;99.90
51725;DHT22;37801;53.224;6.552;2023-02-28T00:25:15;5.70;99.90
51725;DHT22;37801;53.224;6.552;2023-02-28T00:27:42;5.70;99.90
51725;DHT22;37801;53.224;6.552;2023-02-28T00:30:11;5.70;99.90
51725;DHT22;37801;53.224;6.552;2023-02-28T00:32:37;5.70;99.90
51725;DHT22;37801;53.224;6.552;2023-02-28T00:35:04;5.70;99.90
51725;DHT22;37801;53.224;6.552;2023-02-28T00:37:30;5.70;99.90
51725;DHT22;37801;53.224;6.552;2023-02-28T00:39:56;5.70;99.90
51725;DHT22;37801;53.224;6.552;2023-02-28T00:42:22;5.70;99.90
51725;DHT22;37801;53.224;6.552;2023-02-28T00:44:48;5.70;99.90
51725;DHT22;37801;53.224;6.552;2023-02-28T00:47:14;5.70;99.90
51725;DHT22;37801;53.224;6.552;2023-02-28T00:49:40;5.70;99.90
51725;DHT22;37801;53.224;6.552;2023-02-28T00:52:06;5.80;99.90
51725;DHT22;37801;53.224;6.552;2023-02-28T00:54:32;5.80;99.90
51725;DHT22;37801;53.224;6.552;2023-02-28T00:56:57;5.80;99.90
51725;DHT22;37801;53.224;6.552;2023-02-28T00:59:23;5.80;99.90
51725;DHT22;37801;53.224;6.552;2023-02-28T01:01:49;5.80;99.90
51725;DHT22;37801;53.224;6.552;2023-02-28T01:04:15;5.80;99.90
51725;DHT22;37801;53.224;6.552;2023-02-28T01:06:41;5.80;99.90
51725;DHT22;37801;53.224;6.552;2023-02-28T01:09:08;5.80;99.90
51725;DHT22;37801;53.224;6.552;2023-02-28T01:11:34;5.80;99.90
51725;DHT22;37801;53.224;6.552;2023-02-28T01:14:00;5.80;99.90
51725;DHT22;37801;53.224;6.552;2023-02-28T01:16:27;5.80;99.90
51725;DHT22;37801;53.224;6.552;2023-02-28T01:18:53;5.70;99.90
51725;DHT22;37801;53.224;6.552;2023-02-28T01:21:20;5.80;99.90
51725;DHT22;37801;53.224;6.552;2023-02-28T01:23:46;5.70;99.90
51725;DHT22;37801;53.224;6.552;2023-02-28T01:26:18;5.80;99.90
51725;DHT22;37801;53.224;6.552;2023-02-28T01:28:45;5.80;99.90
51725;DHT22;37801;53.224;6.552;2023-02-28T01:31:11;5.80;99.90
51725;DHT22;37801;53.224;6.552;2023-02-28T01:33:37;5.80;99.90
51725;DHT22;37801;53.224;6.552;2023-02-28T01:36:09;5.80;99.90
51725;DHT22;37801;53.224;6.552;2023-02-28T01:38:35;5.80;99.90
51725;DHT22;37801;53.224;6.552;2023-02-28T01:41:01;5.80;99.90
51725;DHT22;37801;53.224;6.552;2023-02-28T01:43:30;5.80;99.90
51725;DHT22;37801;53.224;6.552;2023-02-28T01:45:57;5.80;99.90
51725;DHT22;37801;53.224;6.552;2023-02-28T01:48:27;5.80;99.90
51725;DHT22;37801;53.224;6.552;2023-02-28T01:50:57;5.80;99.90
51725;DHT22;37801;53.224;6.552;2023-02-28T01:53:31;5.80;99.90
51725;DHT22;37801;53.224;6.552;2023-02-28T01:55:58;5.80;99.90
51725;DHT22;37801;53.224;6.552;2023-02-28T01:58:24;5.80;99.90
51725;DHT22;37801;53.224;6.552;2023-02-28T02:00:50;5.80;99.90
51725;DHT22;37801;53.224;6.552;2023-02-28T02:03:18;5.80;99.90
51725;DHT22;37801;53.224;6.552;2023-02-28T02:05:47;5.80;99.90
51725;DHT22;37801;53.224;6.552;2023-02-28T02:08:19;5.80;99.90
51725;DHT22;37801;53.224;6.552;2023-02-28T02:10:56;5.80;99.90
51725;DHT22;37801;53.224;6.552;2023-02-28T02:14:01;5.80;99.90
51725;DHT22;37801;53.224;6.552;2023-02-28T02:22:27;5.80;99.90
51725;DHT22;37801;53.224;6.552;2023-02-28T02:35:11;5.90;99.90
51725;DHT22;37801;53.224;6.552;2023-02-28T02:40:08;5.90;99.90
51725;DHT22;37801;53.224;6.552;2023-02-28T02:43:15;5.90;99.90
51725;DHT22;37801;53.224;6.552;2023-02-28T02:45:53;5.90;99.90
51725;DHT22;37801;53.224;6.552;2023-02-28T02:48:25;5.90;99.90
51725;DHT22;37801;53.224;6.552;2023-02-28T02:50:58;5.90;99.90
51725;DHT22;37801;53.224;6.552;2023-02-28T02:53:34;5.90;99.90
51725;DHT22;37801;53.224;6.552;2023-02-28T02:56:01;5.90;99.90
51725;DHT22;37801;53.224;6.552;2023-02-28T02:58:37;5.90;99.90
51725;DHT22;37801;53.224;6.552;2023-02-28T03:01:08;5.90;99.90
51725;DHT22;37801;53.224;6.552;2023-02-28T03:03:36;5.90;99.90
51725;DHT22;37801;53.224;6.552;2023-02-28T03:06:02;5.80;99.90
51725;DHT22;37801;53.224;6.552;2023-02-28T03:08:33;5.80;99.90
51725;DHT22;37801;53.224;6.552;2023-02-28T03:11:02;5.80;99.90
51725;DHT22;37801;53.224;6.552;2023-02-28T03:27:52;5.80;99.90
51725;DHT22;37801;53.224;6.552;2023-02-28T03:30:59;5.70;99.90
51725;DHT22;37801;53.224;6.552;2023-02-28T03:33:36;5.70;99.90
51725;DHT22;37801;53.224;6.552;2023-02-28T03:36:09;5.60;99.90
51725;DHT22;37801;53.224;6.552;2023-02-28T03:38:46;5.60;99.90
51725;DHT22;37801;53.224;6.552;2023-02-28T03:41:20;5.60;99.90
51725;DHT22;37801;53.224;6.552;2023-02-28T03:43:55;5.60;99.90
51725;DHT22;37801;53.224;6.552;2023-02-28T03:46:23;5.50;99.90
51725;DHT22;37801;53.224;6.552;2023-02-28T03:48:57;5.50;99.90
51725;DHT22;37801;53.224;6.552;2023-02-28T03:51:27;5.50;99.90
51725;DHT22;37801;53.224;6.552;2023-02-28T03:53:58;5.50;99.90
51725;DHT22;37801;53.224;6.552;2023-02-28T03:56:34;5.40;99.90
51725;DHT22;37801;53.224;6.552;2023-02-28T04:01:48;5.30;99.90
51725;DHT22;37801;53.224;6.552;2023-02-28T04:04:15;5.30;99.90
51725;DHT22;37801;53.224;6.552;2023-02-28T04:06:43;5.20;99.90
51725;DHT22;37801;53.224;6.552;2023-02-28T04:09:11;5.20;99.90
51725;DHT22;37801;53.224;6.552;2023-02-28T04:11:39;5.20;99.90
51725;DHT22;37801;53.224;6.552;2023-02-28T04:14:06;5.10;99.90
51725;DHT22;37801;53.224;6.552;2023-02-28T04:16:34;5.10;99.90
51725;DHT22;37801;53.224;6.552;2023-02-28T04:19:04;5.10;99.90
51725;DHT22;37801;53.224;6.552;2023-02-28T04:21:42;5.10;99.90
51725;DHT22;37801;53.224;6.552;2023-02-28T04:24:24;5.00;99.90
51725;DHT22;37801;53.224;6.552;2023-02-28T04:26:52;5.00;99.90
51725;DHT22;37801;53.224;6.552;2023-02-28T04:29:23;5.00;99.90
51725;DHT22;37801;53.224;6.552;2023-02-28T04:31:49;4.90;99.90
51725;DHT22;37801;53.224;6.552;2023-02-28T04:34:16;4.90;99.90
51725;DHT22;37801;53.224;6.552;2023-02-28T04:36:42;4.90;99.90
51725;DHT22;37801;53.224;6.552;2023-02-28T04:39:08;4.90;99.90
51725;DHT22;37801;53.224;6.552;2023-02-28T04:41:35;4.90;99.90
51725;DHT22;37801;53.224;6.552;2023-02-28T04:44:00;4.90;99.90
51725;DHT22;37801;53.224;6.552;2023-02-28T04:46:26;4.90;99.90
51725;DHT22;37801;53.224;6.552;2023-02-28T04:48:52;5.00;99.90
51725;DHT22;37801;53.224;6.552;2023-02-28T04:51:19;4.90;99.90
51725;DHT22;37801;53.224;6.552;2023-02-28T04:53:46;4.80;99.90
51725;DHT22;37801;53.224;6.552;2023-02-28T04:56:13;4.80;99.90
51725;DHT22;37801;53.224;6.552;2023-02-28T04:58:40;4.80;99.90
51725;DHT22;37801;53.224;6.552;2023-02-28T05:01:29;4.80;99.90
51725;DHT22;37801;53.224;6.552;2023-02-28T05:03:57;4.70;99.90
51725;DHT22;37801;53.224;6.552;2023-02-28T05:06:25;4.80;99.90
51725;DHT22;37801;53.224;6.552;2023-02-28T05:08:51;4.80;99.90
51725;DHT22;37801;53.224;6.552;2023-02-28T05:11:20;4.80;99.90
51725;DHT22;37801;53.224;6.552;2023-02-28T05:13:46;4.70;99.90
51725;DHT22;37801;53.224;6.552;2023-02-28T05:16:12;4.70;99.90
51725;DHT22;37801;53.224;6.552;2023-02-28T05:18:38;4.70;99.90
51725;DHT22;37801;53.224;6.552;2023-02-28T05:21:04;4.70;99.90
51725;DHT22;37801;53.224;6.552;2023-02-28T05:23:30;4.70;99.90
51725;DHT22;37801;53.224;6.552;2023-02-28T05:25:56;4.70;99.90
51725;DHT22;37801;53.224;6.552;2023-02-28T05:28:22;4.70;99.90
51725;DHT22;37801;53.224;6.552;2023-02-28T05:30:47;4.60;99.90
51725;DHT22;37801;53.224;6.552;2023-02-28T05:33:14;4.60;99.90
51725;DHT22;37801;53.224;6.552;2023-02-28T05:35:40;4.60;99.90
51725;DHT22;37801;53.224;6.552;2023-02-28T05:38:06;4.50;99.90
51725;DHT22;37801;53.224;6.552;2023-02-28T05:40:32;4.50;99.90
51725;DHT22;37801;53.224;6.552;2023-02-28T05:42:58;4.50;99.90
51725;DHT22;37801;53.224;6.552;2023-02-28T05:45:24;4.40;99.90
51725;DHT22;37801;53.224;6.552;2023-02-28T05:47:53;4.40;99.90
51725;DHT22;37801;53.224;6.552;2023-02-28T05:50:19;4.40;99.90
51725;DHT22;37801;53.224;6.552;2023-02-28T05:52:52;4.40;99.90
51725;DHT22;37801;53.224;6.552;2023-02-28T05:55:17;4.40;99.90
51725;DHT22;37801;53.224;6.552;2023-02-28T05:57:44;4.40;99.90
51725;DHT22;37801;53.224;6.552;2023-02-28T06:00:11;4.30;99.90
51725;DHT22;37801;53.224;6.552;2023-02-28T06:02:39;4.30;99.90
51725;DHT22;37801;53.224;6.552;2023-02-28T06:05:09;4.30;99.90
51725;DHT22;37801;53.224;6.552;2023-02-28T06:07:38;4.40;99.90
51725;DHT22;37801;53.224;6.552;2023-02-28T06:10:05;4.30;99.90
51725;DHT22;37801;53.224;6.552;2023-02-28T06:12:30;4.30;99.90
51725;DHT22;37801;53.224;6.552;2023-02-28T06:14:56;4.30;99.90
51725;DHT22;37801;53.224;6.552;2023-02-28T06:17:22;4.40;99.90
51725;DHT22;37801;53.224;6.552;2023-02-28T06:19:47;4.30;99.90
51725;DHT22;37801;53.224;6.552;2023-02-28T06:22:13;4.30;99.90
51725;DHT22;37801;53.224;6.552;2023-02-28T06:24:39;4.30;99.90
51725;DHT22;37801;53.224;6.552;2023-02-28T06:27:04;4.30;99.90
51725;DHT22;37801;53.224;6.552;2023-02-28T06:29:32;4.40;99.90
51725;DHT22;37801;53.224;6.552;2023-02-28T06:31:58;4.40;99.90
51725;DHT22;37801;53.224;6.552;2023-02-28T06:34:24;4.40;99.90
51725;DHT22;37801;53.224;6.552;2023-02-28T06:36:51;4.40;99.90
51725;DHT22;37801;53.224;6.552;2023-02-28T06:39:17;4.40;99.90
51725;DHT22;37801;53.224;6.552;2023-02-28T06:41:43;4.40;99.90
51725;DHT22;37801;53.224;6.552;2023-02-28T06:44:13;4.30;99.90
51725;DHT22;37801;53.224;6.552;2023-02-28T06:46:43;4.30;99.90
51725;DHT22;37801;53.224;6.552;2023-02-28T06:49:09;4.30;99.90
51725;DHT22;37801;53.224;6.552;2023-02-28T06:51:40;4.30;99.90
51725;DHT22;37801;53.224;6.552;2023-02-28T06:54:07;4.30;99.90
51725;DHT22;37801;53.224;6.552;2023-02-28T06:56:36;4.20;99.90
51725;DHT22;37801;53.224;6.552;2023-02-28T06:59:02;4.20;99.90
51725;DHT22;37801;53.224;6.552;2023-02-28T07:01:29;4.20;99.90
51725;DHT22;37801;53.224;6.552;2023-02-28T07:03:55;4.20;99.90
51725;DHT22;37801;53.224;6.552;2023-02-28T07:06:24;4.10;99.90
51725;DHT22;37801;53.224;6.552;2023-02-28T07:08:51;4.10;99.90
51725;DHT22;37801;53.224;6.552;2023-02-28T07:11:18;4.10;99.90
51725;DHT22;37801;53.224;6.552;2023-02-28T07:13:44;4.10;99.90
51725;DHT22;37801;53.224;6.552;2023-02-28T07:16:11;4.10;99.90
51725;DHT22;37801;53.224;6.552;2023-02-28T07:18:37;4.00;99.90
51725;DHT22;37801;53.224;6.552;2023-02-28T07:21:04;4.00;99.90
51725;DHT22;37801;53.224;6.552;2023-02-28T07:23:31;4.10;99.90
51725;DHT22;37801;53.224;6.552;2023-02-28T07:25:57;4.00;99.90
51725;DHT22;37801;53.224;6.552;2023-02-28T07:28:23;4.00;99.90
51725;DHT22;37801;53.224;6.552;2023-02-28T07:30:49;4.10;99.90
51725;DHT22;37801;53.224;6.552;2023-02-28T07:33:14;4.10;99.90
51725;DHT22;37801;53.224;6.552;2023-02-28T07:35:40;4.10;99.90
51725;DHT22;37801;53.224;6.552;2023-02-28T07:38:06;4.10;99.90
51725;DHT22;37801;53.224;6.552;2023-02-28T07:40:35;4.20;99.90
51725;DHT22;37801;53.224;6.552;2023-02-28T07:43:02;4.20;99.90
51725;DHT22;37801;53.224;6.552;2023-02-28T07:45:29;4.30;99.90
51725;DHT22;37801;53.224;6.552;2023-02-28T07:47:57;4.30;99.90
51725;DHT22;37801;53.224;6.552;2023-02-28T07:50:23;4.40;99.90
51725;DHT22;37801;53.224;6.552;2023-02-28T07:52:48;4.40;99.90
51725;DHT22;37801;53.224;6.552;2023-02-28T07:55:14;4.40;99.90
51725;DHT22;37801;53.224;6.552;2023-02-28T07:57:42;4.50;99.90
51725;DHT22;37801;53.224;6.552;2023-02-28T08:00:10;4.60;99.90
51725;DHT22;37801;53.224;6.552;2023-02-28T08:02:36;4.60;99.90
51725;DHT22;37801;53.224;6.552;2023-02-28T08:05:02;4.50;99.90
51725;DHT22;37801;53.224;6.552;2023-02-28T08:07:28;4.50;99.90
51725;DHT22;37801;53.224;6.552;2023-02-28T08:09:54;4.60;99.90
51725;DHT22;37801;53.224;6.552;2023-02-28T08:12:19;4.60;99.90
51725;DHT22;37801;53.224;6.552;2023-02-28T08:14:45;4.70;99.90
51725;DHT22;37801;53.224;6.552;2023-02-28T08:17:11;4.70;99.90
51725;DHT22;37801;53.224;6.552;2023-02-28T08:19:37;4.70;99.90
51725;DHT22;37801;53.224;6.552;2023-02-28T08:22:03;4.80;99.90
51725;DHT22;37801;53.224;6.552;2023-02-28T08:24:29;4.80;99.90
51725;DHT22;37801;53.224;6.552;2023-02-28T08:26:55;4.90;99.90
51725;DHT22;37801;53.224;6.552;2023-02-28T08:29:21;5.00;99.90
51725;DHT22;37801;53.224;6.552;2023-02-28T08:31:47;5.00;99.90
51725;DHT22;37801;53.224;6.552;2023-02-28T08:34:14;5.00;99.90
51725;DHT22;37801;53.224;6.552;2023-02-28T08:36:41;5.00;99.90
51725;DHT22;37801;53.224;6.552;2023-02-28T08:39:08;5.00;99.90
51725;DHT22;37801;53.224;6.552;2023-02-28T08:41:34;5.10;99.90
51725;DHT22;37801;53.224;6.552;2023-02-28T08:44:00;5.10;99.90
51725;DHT22;37801;53.224;6.552;2023-02-28T08:46:27;5.20;99.90
51725;DHT22;37801;53.224;6.552;2023-02-28T08:48:54;5.30;99.90
51725;DHT22;37801;53.224;6.552;2023-02-28T08:51:21;5.30;99.90
51725;DHT22;37801;53.224;6.552;2023-02-28T08:53:52;5.30;99.90
51725;DHT22;37801;53.224;6.552;2023-02-28T08:56:19;5.30;99.90
51725;DHT22;37801;53.224;6.552;2023-02-28T08:58:46;5.30;99.90
51725;DHT22;37801;53.224;6.552;2023-02-28T09:01:35;5.30;99.90
51725;DHT22;37801;53.224;6.552;2023-02-28T09:04:02;5.30;99.90
51725;DHT22;37801;53.224;6.552;2023-02-28T09:06:28;5.50;99.90
51725;DHT22;37801;53.224;6.552;2023-02-28T09:08:57;5.50;99.90
51725;DHT22;37801;53.224;6.552;2023-02-28T09:11:24;5.60;99.90
51725;DHT22;37801;53.224;6.552;2023-02-28T09:13:49;5.60;99.90
51725;DHT22;37801;53.224;6.552;2023-02-28T09:16:16;5.60;99.90
51725;DHT22;37801;53.224;6.552;2023-02-28T09:18:42;5.60;99.90
51725;DHT22;37801;53.224;6.552;2023-02-28T09:21:12;5.70;99.90
51725;DHT22;37801;53.224;6.552;2023-02-28T09:23:40;5.80;99.90
51725;DHT22;37801;53.224;6.552;2023-02-28T09:26:07;5.80;99.90
51725;DHT22;37801;53.224;6.552;2023-02-28T09:28:33;5.80;99.90
51725;DHT22;37801;53.224;6.552;2023-02-28T09:30:59;5.90;99.90
51725;DHT22;37801;53.224;6.552;2023-02-28T09:33:26;5.80;99.90
51725;DHT22;37801;53.224;6.552;2023-02-28T09:35:58;5.70;99.90
51725;DHT22;37801;53.224;6.552;2023-02-28T09:38:25;5.70;99.90
51725;DHT22;37801;53.224;6.552;2023-02-28T09:40:55;5.70;99.90
51725;DHT22;37801;53.224;6.552;2023-02-28T09:43:24;5.70;99.90
51725;DHT22;37801;53.224;6.552;2023-02-28T09:45:55;5.60;99.90
51725;DHT22;37801;53.224;6.552;2023-02-28T09:48:25;5.60;99.90
51725;DHT22;37801;53.224;6.552;2023-02-28T09:51:05;5.60;99.90
51725;DHT22;37801;53.224;6.552;2023-02-28T09:53:37;5.50;99.90
51725;DHT22;37801;53.224;6.552;2023-02-28T09:56:09;5.60;99.90
51725;DHT22;37801;53.224;6.552;2023-02-28T09:58:43;5.60;99.90
51725;DHT22;37801;53.224;6.552;2023-02-28T10:06:58;5.60;99.90
51725;DHT22;37801;53.224;6.552;2023-02-28T10:09:29;5.50;99.90
51725;DHT22;37801;53.224;6.552;2023-02-28T10:12:03;5.60;99.90
51725;DHT22;37801;53.224;6.552;2023-02-28T10:14:33;5.50;99.90
51725;DHT22;37801;53.224;6.552;2023-02-28T10:18:03;5.50;99.90
51725;DHT22;37801;53.224;6.552;2023-02-28T10:20:23;5.50;99.90
51725;DHT22;37801;53.224;6.552;2023-02-28T10:22:59;5.60;99.90
51725;DHT22;37801;53.224;6.552;2023-02-28T10:25:32;5.50;99.90
51725;DHT22;37801;53.224;6.552;2023-02-28T10:28:12;5.50;99.90
51725;DHT22;37801;53.224;6.552;2023-02-28T10:30:42;5.60;99.90
51725;DHT22;37801;53.224;6.552;2023-02-28T10:33:35;5.50;99.90
51725;DHT22;37801;53.224;6.552;2023-02-28T10:36:02;5.50;99.90
51725;DHT22;37801;53.224;6.552;2023-02-28T10:38:35;5.50;99.60
51725;DHT22;37801;53.224;6.552;2023-02-28T10:41:07;5.50;90.00
51725;DHT22;37801;53.224;6.552;2023-02-28T10:43:34;5.50;66.90
51725;DHT22;37801;53.224;6.552;2023-02-28T10:46:03;5.50;80.70
51725;DHT22;37801;53.224;6.552;2023-02-28T10:48:41;5.60;92.10
51725;DHT22;37801;53.224;6.552;2023-02-28T10:51:12;5.60;92.10
51725;DHT22;37801;53.224;6.552;2023-02-28T10:53:59;5.60;90.50
51725;DHT22;37801;53.224;6.552;2023-02-28T10:56:25;5.60;95.40
51725;DHT22;37801;53.224;6.552;2023-02-28T11:03:48;5.70;50.20
51725;DHT22;37801;53.224;6.552;2023-02-28T11:08:52;5.70;7.90
51725;DHT22;37801;53.224;6.552;2023-02-28T11:11:20;5.70;38.00
51725;DHT22;37801;53.224;6.552;2023-02-28T11:13:51;5.70;16.10
51725;DHT22;37801;53.224;6.552;2023-02-28T11:16:18;5.70;6.60
51725;DHT22;37801;53.224;6.552;2023-02-28T11:18:54;5.70;1.00
51725;DHT22;37801;53.224;6.552;2023-02-28T11:21:27;5.60;1.00
51725;DHT22;37801;53.224;6.552;2023-02-28T11:24:20;5.70;1.00
51725;DHT22;37801;53.224;6.552;2023-02-28T11:26:48;5.70;9.90
51725;DHT22;37801;53.224;6.552;2023-02-28T11:34:39;5.80;1.00
51725;DHT22;37801;53.224;6.552;2023-02-28T11:37:14;5.80;1.00
51725;DHT22;37801;53.224;6.552;2023-02-28T11:39:41;5.80;1.00
51725;DHT22;37801;53.224;6.552;2023-02-28T11:48:26;5.90;1.00
51725;DHT22;37801;53.224;6.552;2023-02-28T11:51:18;5.90;1.00
51725;DHT22;37801;53.224;6.552;2023-02-28T11:56:39;5.90;1.00
51725;DHT22;37801;53.224;6.552;2023-02-28T11:59:38;6.00;1.00
51725;DHT22;37801;53.224;6.552;2023-02-28T12:13:05;6.30;1.00
51725;DHT22;37801;53.224;6.552;2023-02-28T12:15:43;6.30;1.00
51725;DHT22;37801;53.224;6.552;2023-02-28T12:27:17;6.40;1.00
51725;DHT22;37801;53.224;6.552;2023-02-28T12:29:52;6.40;1.00
51725;DHT22;37801;53.224;6.552;2023-02-28T12:32:27;6.40;1.00
51725;DHT22;37801;53.224;6.552;2023-02-28T12:35:19;6.40;1.00
51725;DHT22;37801;53.224;6.552;2023-02-28T12:37:56;6.50;1.00
51725;DHT22;37801;53.224;6.552;2023-02-28T12:40:25;6.40;1.00
51725;DHT22;37801;53.224;6.552;2023-02-28T12:43:03;6.40;1.00
51725;DHT22;37801;53.224;6.552;2023-02-28T12:45:50;6.30;1.00
51725;DHT22;37801;53.224;6.552;2023-02-28T12:48:25;6.30;1.00
51725;DHT22;37801;53.224;6.552;2023-02-28T12:50:53;6.30;1.00
51725;DHT22;37801;53.224;6.552;2023-02-28T12:53:31;6.30;1.00
51725;DHT22;37801;53.224;6.552;2023-02-28T12:58:49;6.30;1.00
51725;DHT22;37801;53.224;6.552;2023-02-28T13:09:37;6.60;1.00
51725;DHT22;37801;53.224;6.552;2023-02-28T13:12:13;6.60;1.00
51725;DHT22;37801;53.224;6.552;2023-02-28T13:14:39;6.70;1.00
51725;DHT22;37801;53.224;6.552;2023-02-28T13:19:36;6.80;1.00
51725;DHT22;37801;53.224;6.552;2023-02-28T13:22:04;6.80;1.00
51725;DHT22;37801;53.224;6.552;2023-02-28T13:24:43;6.80;1.00
51725;DHT22;37801;53.224;6.552;2023-02-28T13:27:11;6.70;1.00
51725;DHT22;37801;53.224;6.552;2023-02-28T13:29:42;6.80;1.00
51725;DHT22;37801;53.224;6.552;2023-02-28T13:39:56;6.90;1.00
51725;DHT22;37801;53.224;6.552;2023-02-28T13:47:42;6.80;1.00
51725;DHT22;37801;53.224;6.552;2023-02-28T13:50:34;6.70;1.00
51725;DHT22;37801;53.224;6.552;2023-02-28T13:58:28;6.50;1.00
51725;DHT22;37801;53.224;6.552;2023-02-28T14:01:36;6.50;1.00
51725;DHT22;37801;53.224;6.552;2023-02-28T14:07:19;6.40;1.00
51725;DHT22;37801;53.224;6.552;2023-02-28T14:09:54;6.30;1.00
51725;DHT22;37801;53.224;6.552;2023-02-28T14:15:40;6.30;1.00
51725;DHT22;37801;53.224;6.552;2023-02-28T14:18:19;6.30;1.00
51725;DHT22;37801;53.224;6.552;2023-02-28T14:20:47;6.40;1.00
51725;DHT22;37801;53.224;6.552;2023-02-28T14:26:19;6.40;1.00
51725;DHT22;37801;53.224;6.552;2023-02-28T14:32:06;6.40;1.00
51725;DHT22;37801;53.224;6.552;2023-02-28T14:37:03;6.40;1.00
51725;DHT22;37801;53.224;6.552;2023-02-28T14:39:30;6.40;1.00
51725;DHT22;37801;53.224;6.552;2023-02-28T14:41:57;6.40;1.00
51725;DHT22;37801;53.224;6.552;2023-02-28T14:44:31;6.40;1.00
51725;DHT22;37801;53.224;6.552;2023-02-28T14:47:01;6.40;1.00
51725;DHT22;37801;53.224;6.552;2023-02-28T14:49:36;6.30;1.00
51725;DHT22;37801;53.224;6.552;2023-02-28T14:54:36;6.30;1.00
51725;DHT22;37801;53.224;6.552;2023-02-28T14:57:03;6.40;1.00
51725;DHT22;37801;53.224;6.552;2023-02-28T14:59:32;6.30;1.00
51725;DHT22;37801;53.224;6.552;2023-02-28T15:02:19;6.30;1.00
51725;DHT22;37801;53.224;6.552;2023-02-28T15:04:56;6.30;1.00
51725;DHT22;37801;53.224;6.552;2023-02-28T15:07:22;6.30;1.00
51725;DHT22;37801;53.224;6.552;2023-02-28T15:10:21;6.40;1.00
51725;DHT22;37801;53.224;6.552;2023-02-28T15:13:04;6.30;1.00
51725;DHT22;37801;53.224;6.552;2023-02-28T15:15:45;6.30;1.00
51725;DHT22;37801;53.224;6.552;2023-02-28T15:20:57;6.30;1.00
51725;DHT22;37801;53.224;6.552;2023-02-28T15:23:24;6.40;1.00
51725;DHT22;37801;53.224;6.552;2023-02-28T15:25:51;6.30;1.00
51725;DHT22;37801;53.224;6.552;2023-02-28T15:28:20;6.40;1.00
51725;DHT22;37801;53.224;6.552;2023-02-28T15:30:54;6.40;1.00
51725;DHT22;37801;53.224;6.552;2023-02-28T15:33:26;6.40;1.00
51725;DHT22;37801;53.224;6.552;2023-02-28T15:36:21;6.30;1.00
51725;DHT22;37801;53.224;6.552;2023-02-28T15:38:51;6.30;1.00
51725;DHT22;37801;53.224;6.552;2023-02-28T15:41:27;6.30;1.00
51725;DHT22;37801;53.224;6.552;2023-02-28T15:44:22;6.30;1.00
51725;DHT22;37801;53.224;6.552;2023-02-28T15:49:28;6.20;1.00
51725;DHT22;37801;53.224;6.552;2023-02-28T15:51:57;6.20;1.00
51725;DHT22;37801;53.224;6.552;2023-02-28T15:54:28;6.10;1.00
51725;DHT22;37801;53.224;6.552;2023-02-28T15:57:04;6.20;1.00
51725;DHT22;37801;53.224;6.552;2023-02-28T15:59:36;6.10;1.00
51725;DHT22;37801;53.224;6.552;2023-02-28T16:07:27;6.10;1.00
51725;DHT22;37801;53.224;6.552;2023-02-28T16:09:54;6.10;1.00
51725;DHT22;37801;53.224;6.552;2023-02-28T16:12:21;6.00;1.00
51725;DHT22;37801;53.224;6.552;2023-02-28T16:14:52;6.10;1.00
51725;DHT22;37801;53.224;6.552;2023-02-28T16:17:23;6.10;1.00
51725;DHT22;37801;53.224;6.552;2023-02-28T16:19:49;6.10;1.00
51725;DHT22;37801;53.224;6.552;2023-02-28T16:22:15;6.10;1.00
51725;DHT22;37801;53.224;6.552;2023-02-28T16:24:41;6.00;1.00
51725;DHT22;37801;53.224;6.552;2023-02-28T16:27:21;6.00;1.00
51725;DHT22;37801;53.224;6.552;2023-02-28T16:29:50;6.00;1.00
51725;DHT22;37801;53.224;6.552;2023-02-28T16:32:16;6.00;1.00
51725;DHT22;37801;53.224;6.552;2023-02-28T16:34:43;5.90;1.00
51725;DHT22;37801;53.224;6.552;2023-02-28T16:37:14;5.90;1.00
51725;DHT22;37801;53.224;6.552;2023-02-28T16:39:42;5.90;1.00
51725;DHT22;37801;53.224;6.552;2023-02-28T16:42:26;5.90;1.00
51725;DHT22;37801;53.224;6.552;2023-02-28T16:44:53;5.90;1.00
51725;DHT22;37801;53.224;6.552;2023-02-28T16:47:19;5.80;1.00
51725;DHT22;37801;53.224;6.552;2023-02-28T16:49:45;5.80;1.00
51725;DHT22;37801;53.224;6.552;2023-02-28T16:52:13;5.70;1.00
51725;DHT22;37801;53.224;6.552;2023-02-28T16:54:40;5.70;1.00
51725;DHT22;37801;53.224;6.552;2023-02-28T16:57:11;5.70;1.00
51725;DHT22;37801;53.224;6.552;2023-02-28T16:59:38;5.60;1.00
51725;DHT22;37801;53.224;6.552;2023-02-28T17:02:13;5.60;1.00
51725;DHT22;37801;53.224;6.552;2023-02-28T17:04:39;5.60;1.00
51725;DHT22;37801;53.224;6.552;2023-02-28T17:07:08;5.50;1.00
51725;DHT22;37801;53.224;6.552;2023-02-28T17:09:36;5.40;1.00
51725;DHT22;37801;53.224;6.552;2023-02-28T17:12:01;5.40;1.00
51725;DHT22;37801;53.224;6.552;2023-02-28T17:14:27;5.30;1.00
51725;DHT22;37801;53.224;6.552;2023-02-28T17:16:53;5.30;1.00
51725;DHT22;37801;53.224;6.552;2023-02-28T17:19:19;5.20;1.00
51725;DHT22;37801;53.224;6.552;2023-02-28T17:21:45;5.20;1.00
51725;DHT22;37801;53.224;6.552;2023-02-28T17:24:11;5.20;1.00
51725;DHT22;37801;53.224;6.552;2023-02-28T17:26:42;5.10;1.00
51725;DHT22;37801;53.224;6.552;2023-02-28T17:29:20;5.00;1.00
51725;DHT22;37801;53.224;6.552;2023-02-28T17:31:46;4.90;1.00
51725;DHT22;37801;53.224;6.552;2023-02-28T17:34:12;4.90;1.00
51725;DHT22;37801;53.224;6.552;2023-02-28T17:36:44;4.80;1.00
51725;DHT22;37801;53.224;6.552;2023-02-28T17:39:12;4.80;1.00
51725;DHT22;37801;53.224;6.552;2023-02-28T17:41:40;4.70;1.00
51725;DHT22;37801;53.224;6.552;2023-02-28T17:44:07;4.70;1.00
51725;DHT22;37801;53.224;6.552;2023-02-28T17:46:34;4.70;1.00
51725;DHT22;37801;53.224;6.552;2023-02-28T17:49:00;4.60;1.00
51725;DHT22;37801;53.224;6.552;2023-02-28T17:51:26;4.60;1.00
51725;DHT22;37801;53.224;6.552;2023-02-28T17:53:51;4.50;1.00
51725;DHT22;37801;53.224;6.552;2023-02-28T17:56:20;4.50;1.00
51725;DHT22;37801;53.224;6.552;2023-02-28T17:58:46;4.50;1.00
51725;DHT22;37801;53.224;6.552;2023-02-28T18:01:13;4.50;1.00
51725;DHT22;37801;53.224;6.552;2023-02-28T18:03:39;4.50;1.00
51725;DHT22;37801;53.224;6.552;2023-02-28T18:06:06;4.50;1.00
51725;DHT22;37801;53.224;6.552;2023-02-28T18:08:32;4.50;1.00
51725;DHT22;37801;53.224;6.552;2023-02-28T18:11:00;4.50;1.00
51725;DHT22;37801;53.224;6.552;2023-02-28T18:13:26;4.50;1.00
51725;DHT22;37801;53.224;6.552;2023-02-28T18:15:53;4.50;1.00
51725;DHT22;37801;53.224;6.552;2023-02-28T18:18:19;4.50;2.90
51725;DHT22;37801;53.224;6.552;2023-02-28T18:20:45;4.50;15.70
51725;DHT22;37801;53.224;6.552;2023-02-28T18:23:13;4.40;12.80
51725;DHT22;37801;53.224;6.552;2023-02-28T18:25:39;4.40;26.90
51725;DHT22;37801;53.224;6.552;2023-02-28T18:28:06;4.40;29.30
51725;DHT22;37801;53.224;6.552;2023-02-28T18:30:35;4.40;28.30
51725;DHT22;37801;53.224;6.552;2023-02-28T18:33:02;4.40;38.10